sensor_id;sensor_type;location;lat;lon;timestamp;P1;durP1;ratioP1;P2;durP2;ratioP2
36787;SDS011;22738;45.560;9.434;2023-03-31T00:05:41;23.45;;;2.88;;
36787;SDS011;22738;45.560;9.434;2023-03-31T00:12:27;8.15;;;2.17;;
36787;SDS011;22738;45.560;9.434;2023-03-31T00:19:08;4.88;;;1.88;;
36787;SDS011;22738;45.560;9.434;2023-03-31T00:25:57;9.93;;;2.13;;
36787;SDS011;22738;45.560;9.434;2023-03-31T00:32:38;10.98;;;1.77;;
36787;SDS011;22738;45.560;9.434;2023-03-31T00:39:19;14.30;;;2.22;;
36787;SDS011;22738;45.560;9.434;2023-03-31T00:46:19;21.67;;;2.42;;
36787;SDS011;22738;45.560;9.434;2023-03-31T00:53:08;4.57;;;1.70;;
36787;SDS011;22738;45.560;9.434;2023-03-31T00:59:56;10.95;;;2.40;;
36787;SDS011;22738;45.560;9.434;2023-03-31T01:06:43;12.55;;;2.53;;
36787;SDS011;22738;45.560;9.434;2023-03-31T01:20:29;5.53;;;2.20;;
36787;SDS011;22738;45.560;9.434;2023-03-31T01:27:41;5.35;;;2.33;;
36787;SDS011;22738;45.560;9.434;2023-03-31T01:55:16;5.53;;;2.33;;
36787;SDS011;22738;45.560;9.434;2023-03-31T02:08:54;8.60;;;3.00;;
36787;SDS011;22738;45.560;9.434;2023-03-31T02:15:40;13.13;;;2.70;;
36787;SDS011;22738;45.560;9.434;2023-03-31T02:22:25;9.32;;;2.88;;
36787;SDS011;22738;45.560;9.434;2023-03-31T02:29:11;13.32;;;3.40;;
36787;SDS011;22738;45.560;9.434;2023-03-31T02:35:52;6.45;;;2.58;;
36787;SDS011;22738;45.560;9.434;2023-03-31T02:42:33;15.23;;;3.17;;
36787;SDS011;22738;45.560;9.434;2023-03-31T02:49:14;4.95;;;2.00;;
36787;SDS011;22738;45.560;9.434;2023-03-31T03:10:19;13.32;;;2.67;;
36787;SDS011;22738;45.560;9.434;2023-03-31T03:17:22;12.18;;;2.60;;
36787;SDS011;22738;45.560;9.434;2023-03-31T03:24:07;12.23;;;2.40;;
36787;SDS011;22738;45.560;9.434;2023-03-31T03:30:48;5.90;;;1.77;;
36787;SDS011;22738;45.560;9.434;2023-03-31T03:37:29;14.45;;;2.42;;
36787;SDS011;22738;45.560;9.434;2023-03-31T03:44:11;7.75;;;2.03;;
36787;SDS011;22738;45.560;9.434;2023-03-31T03:50:52;15.43;;;2.40;;
36787;SDS011;22738;45.560;9.434;2023-03-31T03:57:33;4.97;;;2.22;;
36787;SDS011;22738;45.560;9.434;2023-03-31T04:04:15;5.40;;;1.65;;
36787;SDS011;22738;45.560;9.434;2023-03-31T04:10:56;9.27;;;2.55;;
36787;SDS011;22738;45.560;9.434;2023-03-31T04:17:37;4.75;;;2.10;;
36787;SDS011;22738;45.560;9.434;2023-03-31T04:24:18;10.35;;;2.20;;
36787;SDS011;22738;45.560;9.434;2023-03-31T04:31:01;8.13;;;2.07;;
36787;SDS011;22738;45.560;9.434;2023-03-31T04:37:46;12.15;;;2.17;;
36787;SDS011;22738;45.560;9.434;2023-03-31T04:44:28;5.20;;;1.65;;
36787;SDS011;22738;45.560;9.434;2023-03-31T04:51:09;6.18;;;1.67;;
36787;SDS011;22738;45.560;9.434;2023-03-31T04:57:51;4.65;;;1.80;;
36787;SDS011;22738;45.560;9.434;2023-03-31T05:04:32;4.15;;;1.48;;
36787;SDS011;22738;45.560;9.434;2023-03-31T05:11:13;5.97;;;1.80;;
36787;SDS011;22738;45.560;9.434;2023-03-31T05:17:54;4.03;;;1.55;;
36787;SDS011;22738;45.560;9.434;2023-03-31T05:31:19;7.05;;;1.65;;
36787;SDS011;22738;45.560;9.434;2023-03-31T05:38:00;5.47;;;1.55;;
36787;SDS011;22738;45.560;9.434;2023-03-31T05:44:41;4.15;;;1.45;;
36787;SDS011;22738;45.560;9.434;2023-03-31T05:51:22;4.95;;;2.10;;
36787;SDS011;22738;45.560;9.434;2023-03-31T05:58:03;7.35;;;2.00;;
36787;SDS011;22738;45.560;9.434;2023-03-31T06:04:44;6.38;;;2.10;;
36787;SDS011;22738;45.560;9.434;2023-03-31T06:11:26;6.63;;;2.35;;
36787;SDS011;22738;45.560;9.434;2023-03-31T06:18:07;8.95;;;2.60;;
36787;SDS011;22738;45.560;9.434;2023-03-31T06:24:50;4.63;;;1.97;;
36787;SDS011;22738;45.560;9.434;2023-03-31T06:31:31;7.75;;;2.58;;
36787;SDS011;22738;45.560;9.434;2023-03-31T06:38:12;6.07;;;2.35;;
36787;SDS011;22738;45.560;9.434;2023-03-31T06:44:53;5.15;;;2.20;;
36787;SDS011;22738;45.560;9.434;2023-03-31T06:51:35;12.50;;;3.03;;
36787;SDS011;22738;45.560;9.434;2023-03-31T06:58:16;5.43;;;2.33;;
36787;SDS011;22738;45.560;9.434;2023-03-31T07:04:57;13.57;;;3.03;;
36787;SDS011;22738;45.560;9.434;2023-03-31T07:11:38;15.80;;;3.17;;
36787;SDS011;22738;45.560;9.434;2023-03-31T07:18:21;24.50;;;5.07;;
36787;SDS011;22738;45.560;9.434;2023-03-31T07:25:05;15.07;;;5.07;;
36787;SDS011;22738;45.560;9.434;2023-03-31T07:31:48;7.63;;;3.67;;
36787;SDS011;22738;45.560;9.434;2023-03-31T07:38:29;10.90;;;3.60;;
36787;SDS011;22738;45.560;9.434;2023-03-31T07:45:10;6.72;;;3.50;;
36787;SDS011;22738;45.560;9.434;2023-03-31T07:51:51;10.88;;;3.72;;
36787;SDS011;22738;45.560;9.434;2023-03-31T07:58:32;13.93;;;4.18;;
36787;SDS011;22738;45.560;9.434;2023-03-31T08:05:15;10.32;;;3.70;;
36787;SDS011;22738;45.560;9.434;2023-03-31T08:11:58;12.73;;;3.95;;
36787;SDS011;22738;45.560;9.434;2023-03-31T08:18:39;11.32;;;3.85;;
36787;SDS011;22738;45.560;9.434;2023-03-31T08:25:20;12.23;;;4.13;;
36787;SDS011;22738;45.560;9.434;2023-03-31T08:32:01;11.18;;;3.67;;
36787;SDS011;22738;45.560;9.434;2023-03-31T08:38:42;14.82;;;5.40;;
36787;SDS011;22738;45.560;9.434;2023-03-31T08:45:34;10.43;;;4.47;;
36787;SDS011;22738;45.560;9.434;2023-03-31T08:52:22;10.65;;;4.05;;
36787;SDS011;22738;45.560;9.434;2023-03-31T08:59:41;10.80;;;3.78;;
36787;SDS011;22738;45.560;9.434;2023-03-31T09:06:16;8.20;;;4.30;;
36787;SDS011;22738;45.560;9.434;2023-03-31T09:19:48;15.43;;;3.60;;
36787;SDS011;22738;45.560;9.434;2023-03-31T09:26:38;7.18;;;3.17;;
36787;SDS011;22738;45.560;9.434;2023-03-31T09:40:18;6.80;;;2.25;;
36787;SDS011;22738;45.560;9.434;2023-03-31T09:47:01;8.57;;;2.22;;
36787;SDS011;22738;45.560;9.434;2023-03-31T09:53:48;7.35;;;2.05;;
36787;SDS011;22738;45.560;9.434;2023-03-31T10:00:34;6.32;;;2.85;;
36787;SDS011;22738;45.560;9.434;2023-03-31T10:07:22;4.82;;;2.35;;
36787;SDS011;22738;45.560;9.434;2023-03-31T10:20:56;14.70;;;2.63;;
36787;SDS011;22738;45.560;9.434;2023-03-31T10:27:38;11.80;;;3.22;;
36787;SDS011;22738;45.560;9.434;2023-03-31T10:34:21;19.92;;;2.85;;
36787;SDS011;22738;45.560;9.434;2023-03-31T10:41:04;8.00;;;2.75;;
36787;SDS011;22738;45.560;9.434;2023-03-31T10:47:47;5.13;;;2.20;;
36787;SDS011;22738;45.560;9.434;2023-03-31T11:36:15;8.45;;;2.20;;
36787;SDS011;22738;45.560;9.434;2023-03-31T11:49:58;7.07;;;2.58;;
36787;SDS011;22738;45.560;9.434;2023-03-31T11:56:43;11.38;;;1.90;;
36787;SDS011;22738;45.560;9.434;2023-03-31T12:10:49;14.00;;;2.63;;
36787;SDS011;22738;45.560;9.434;2023-03-31T12:17:38;7.07;;;3.40;;
36787;SDS011;22738;45.560;9.434;2023-03-31T12:24:23;17.17;;;2.70;;
36787;SDS011;22738;45.560;9.434;2023-03-31T12:31:04;14.23;;;2.75;;
36787;SDS011;22738;45.560;9.434;2023-03-31T12:58:45;7.47;;;2.72;;
36787;SDS011;22738;45.560;9.434;2023-03-31T13:12:21;9.80;;;3.35;;
36787;SDS011;22738;45.560;9.434;2023-03-31T13:19:05;15.98;;;3.17;;
36787;SDS011;22738;45.560;9.434;2023-03-31T13:32:29;5.85;;;2.53;;
36787;SDS011;22738;45.560;9.434;2023-03-31T14:07:17;10.88;;;3.58;;
36787;SDS011;22738;45.560;9.434;2023-03-31T14:28:09;11.57;;;5.25;;
36787;SDS011;22738;45.560;9.434;2023-03-31T14:42:04;16.33;;;6.05;;
36787;SDS011;22738;45.560;9.434;2023-03-31T14:48:50;13.10;;;5.10;;
36787;SDS011;22738;45.560;9.434;2023-03-31T14:55:32;15.15;;;4.50;;
36787;SDS011;22738;45.560;9.434;2023-03-31T15:02:15;7.28;;;3.92;;
36787;SDS011;22738;45.560;9.434;2023-03-31T15:09:00;12.20;;;4.93;;
36787;SDS011;22738;45.560;9.434;2023-03-31T15:15:43;17.67;;;4.65;;
36787;SDS011;22738;45.560;9.434;2023-03-31T15:22:28;18.85;;;5.18;;
36787;SDS011;22738;45.560;9.434;2023-03-31T15:36:02;8.40;;;4.50;;
36787;SDS011;22738;45.560;9.434;2023-03-31T15:42:44;16.67;;;5.47;;
36787;SDS011;22738;45.560;9.434;2023-03-31T15:49:26;19.00;;;5.18;;
36787;SDS011;22738;45.560;9.434;2023-03-31T15:56:09;14.35;;;5.25;;
36787;SDS011;22738;45.560;9.434;2023-03-31T16:10:18;14.88;;;5.10;;
36787;SDS011;22738;45.560;9.434;2023-03-31T16:17:03;18.08;;;5.13;;
36787;SDS011;22738;45.560;9.434;2023-03-31T16:23:49;12.95;;;5.93;;
36787;SDS011;22738;45.560;9.434;2023-03-31T16:37:15;23.42;;;5.97;;
36787;SDS011;22738;45.560;9.434;2023-03-31T16:43:56;9.68;;;4.35;;
36787;SDS011;22738;45.560;9.434;2023-03-31T16:50:37;12.15;;;4.80;;
36787;SDS011;22738;45.560;9.434;2023-03-31T16:57:18;15.00;;;4.95;;
36787;SDS011;22738;45.560;9.434;2023-03-31T17:04:00;11.07;;;4.88;;
36787;SDS011;22738;45.560;9.434;2023-03-31T17:10:48;8.43;;;4.63;;
36787;SDS011;22738;45.560;9.434;2023-03-31T17:17:31;12.57;;;5.18;;
36787;SDS011;22738;45.560;9.434;2023-03-31T17:24:12;14.95;;;5.82;;
36787;SDS011;22738;45.560;9.434;2023-03-31T17:30:54;18.13;;;5.30;;
36787;SDS011;22738;45.560;9.434;2023-03-31T17:37:37;11.77;;;5.77;;
36787;SDS011;22738;45.560;9.434;2023-03-31T17:44:18;11.93;;;5.20;;
36787;SDS011;22738;45.560;9.434;2023-03-31T17:51:04;13.43;;;5.82;;
36787;SDS011;22738;45.560;9.434;2023-03-31T17:57:47;15.77;;;6.82;;
36787;SDS011;22738;45.560;9.434;2023-03-31T18:04:28;12.02;;;6.03;;
36787;SDS011;22738;45.560;9.434;2023-03-31T18:11:09;16.58;;;7.72;;
36787;SDS011;22738;45.560;9.434;2023-03-31T18:17:51;17.02;;;8.00;;
36787;SDS011;22738;45.560;9.434;2023-03-31T18:24:32;15.20;;;7.10;;
36787;SDS011;22738;45.560;9.434;2023-03-31T18:31:15;17.88;;;7.40;;
36787;SDS011;22738;45.560;9.434;2023-03-31T18:37:56;17.38;;;8.40;;
36787;SDS011;22738;45.560;9.434;2023-03-31T18:44:38;12.60;;;7.35;;
36787;SDS011;22738;45.560;9.434;2023-03-31T18:51:19;19.42;;;8.20;;
36787;SDS011;22738;45.560;9.434;2023-03-31T18:58:00;16.50;;;7.53;;
36787;SDS011;22738;45.560;9.434;2023-03-31T19:04:41;17.55;;;7.70;;
36787;SDS011;22738;45.560;9.434;2023-03-31T19:11:22;13.30;;;8.10;;
36787;SDS011;22738;45.560;9.434;2023-03-31T19:18:03;17.17;;;8.45;;
36787;SDS011;22738;45.560;9.434;2023-03-31T19:24:45;19.13;;;7.93;;
36787;SDS011;22738;45.560;9.434;2023-03-31T19:31:26;14.98;;;8.55;;
36787;SDS011;22738;45.560;9.434;2023-03-31T19:38:07;20.73;;;11.00;;
36787;SDS011;22738;45.560;9.434;2023-03-31T19:44:49;23.20;;;12.43;;
36787;SDS011;22738;45.560;9.434;2023-03-31T19:51:30;19.60;;;11.45;;
36787;SDS011;22738;45.560;9.434;2023-03-31T19:58:11;29.52;;;12.27;;
36787;SDS011;22738;45.560;9.434;2023-03-31T20:04:52;21.42;;;11.80;;
36787;SDS011;22738;45.560;9.434;2023-03-31T20:11:33;23.45;;;11.55;;
36787;SDS011;22738;45.560;9.434;2023-03-31T20:18:15;35.90;;;12.80;;
36787;SDS011;22738;45.560;9.434;2023-03-31T20:24:56;17.73;;;10.90;;
36787;SDS011;22738;45.560;9.434;2023-03-31T20:31:38;19.42;;;10.63;;
36787;SDS011;22738;45.560;9.434;2023-03-31T20:38:19;25.27;;;11.38;;
36787;SDS011;22738;45.560;9.434;2023-03-31T20:45:00;25.83;;;11.55;;
36787;SDS011;22738;45.560;9.434;2023-03-31T20:51:41;22.67;;;12.07;;
36787;SDS011;22738;45.560;9.434;2023-03-31T20:58:23;25.65;;;12.25;;
36787;SDS011;22738;45.560;9.434;2023-03-31T21:05:04;23.48;;;12.05;;
36787;SDS011;22738;45.560;9.434;2023-03-31T21:11:45;22.55;;;12.80;;
36787;SDS011;22738;45.560;9.434;2023-03-31T21:18:27;27.20;;;11.93;;
36787;SDS011;22738;45.560;9.434;2023-03-31T21:25:09;19.33;;;10.77;;
36787;SDS011;22738;45.560;9.434;2023-03-31T21:31:51;24.25;;;12.32;;
36787;SDS011;22738;45.560;9.434;2023-03-31T21:38:32;23.80;;;12.00;;
36787;SDS011;22738;45.560;9.434;2023-03-31T21:45:15;14.60;;;9.70;;
36787;SDS011;22738;45.560;9.434;2023-03-31T21:51:56;20.23;;;10.85;;
36787;SDS011;22738;45.560;9.434;2023-03-31T21:58:39;20.88;;;11.85;;
36787;SDS011;22738;45.560;9.434;2023-03-31T22:05:20;25.52;;;12.40;;
36787;SDS011;22738;45.560;9.434;2023-03-31T22:12:01;20.00;;;12.50;;
36787;SDS011;22738;45.560;9.434;2023-03-31T22:18:43;23.65;;;13.55;;
36787;SDS011;22738;45.560;9.434;2023-03-31T22:25:25;29.08;;;14.82;;
36787;SDS011;22738;45.560;9.434;2023-03-31T22:32:06;30.23;;;14.43;;
36787;SDS011;22738;45.560;9.434;2023-03-31T22:38:47;25.40;;;14.93;;
36787;SDS011;22738;45.560;9.434;2023-03-31T22:45:28;28.15;;;14.63;;
36787;SDS011;22738;45.560;9.434;2023-03-31T22:52:10;29.08;;;14.05;;
36787;SDS011;22738;45.560;9.434;2023-03-31T22:58:51;27.27;;;14.55;;
36787;SDS011;22738;45.560;9.434;2023-03-31T23:05:33;37.80;;;16.33;;
36787;SDS011;22738;45.560;9.434;2023-03-31T23:12:14;34.78;;;15.10;;
36787;SDS011;22738;45.560;9.434;2023-03-31T23:18:55;34.97;;;17.25;;
36787;SDS011;22738;45.560;9.434;2023-03-31T23:25:36;28.63;;;15.95;;
36787;SDS011;22738;45.560;9.434;2023-03-31T23:32:17;29.10;;;14.50;;
36787;SDS011;22738;45.560;9.434;2023-03-31T23:38:58;32.65;;;14.80;;
36787;SDS011;22738;45.560;9.434;2023-03-31T23:45:40;30.38;;;13.52;;
36787;SDS011;22738;45.560;9.434;2023-03-31T23:52:21;25.80;;;13.07;;
36787;SDS011;22738;45.560;9.434;2023-03-31T23:59:04;25.85;;;13.25;;
